Time;durP1;ratioP1;P1;durP2;ratioP2;P2;SDS_P1;SDS_P2;PMS_P1;PMS_P2;Temp;Humidity;BMP_temperature;BMP_pressure;BME280_temperature;BME280_humidity;BME280_pressure;Samples;Min_cycle;Max_cycle;Signal;HPM_P1;HPM_P2
2022/01/05 00:01:39;;;;;;;9.02;5.63;;;7.20;99.90;;;;;;5050776;28;20396;-59
2022/01/05 00:04:24;;;;;;;8.57;5.22;;;7.20;99.90;;;;;;5045709;28;20044;-56
2022/01/05 00:07:08;;;;;;;6.50;5.25;;;7.20;99.90;;;;;;5040298;28;20068;-55
2022/01/05 00:09:52;;;;;;;7.97;5.97;;;7.10;99.90;;;;;;5052221;28;20574;-55
2022/01/05 00:12:37;;;;;;;7.83;5.87;;;7.10;99.90;;;;;;5038494;28;20039;-56
2022/01/05 00:15:21;;;;;;;7.10;5.70;;;7.00;99.90;;;;;;5050793;28;20047;-58
2022/01/05 00:18:05;;;;;;;9.67;6.00;;;7.00;99.90;;;;;;5050676;28;20075;-59
2022/01/05 00:20:49;;;;;;;9.50;5.53;;;7.00;99.90;;;;;;5050527;28;20576;-59
2022/01/05 00:23:33;;;;;;;7.53;5.82;;;7.00;99.90;;;;;;5049968;28;20170;-59
2022/01/05 00:26:17;;;;;;;9.23;6.32;;;6.90;99.90;;;;;;5052676;28;20044;-60
2022/01/05 00:29:02;;;;;;;9.57;6.43;;;6.90;99.90;;;;;;5052454;28;20063;-59
2022/01/05 00:31:47;;;;;;;8.90;6.60;;;7.00;99.90;;;;;;5052364;28;20032;-57
2022/01/05 00:34:31;;;;;;;7.97;6.45;;;7.00;99.90;;;;;;5052101;28;20024;-59
2022/01/05 00:37:16;;;;;;;11.00;7.78;;;7.00;99.90;;;;;;5052188;28;20047;-58
2022/01/05 00:40:00;;;;;;;9.97;7.07;;;7.00;99.90;;;;;;5052670;28;20036;-60
2022/01/05 00:42:45;;;;;;;8.52;6.80;;;7.00;99.90;;;;;;5051970;28;20043;-57
2022/01/05 00:45:29;;;;;;;11.00;7.35;;;7.00;99.90;;;;;;5036750;28;20124;-59
2022/01/05 00:48:13;;;;;;;9.27;7.28;;;7.00;99.90;;;;;;5051942;28;20044;-57
2022/01/05 00:51:02;;;;;;;8.35;6.43;;;6.90;99.90;;;;;;5040205;28;20048;-59
2022/01/05 00:53:46;;;;;;;8.23;6.38;;;6.80;99.90;;;;;;5055730;28;20040;-60
2022/01/05 00:56:30;;;;;;;8.93;6.53;;;6.70;99.90;;;;;;5055616;28;20086;-58
2022/01/05 00:59:15;;;;;;;8.70;6.30;;;6.70;99.90;;;;;;5056312;28;20068;-60
2022/01/05 01:01:59;;;;;;;6.43;5.20;;;6.70;99.90;;;;;;5041092;28;20070;-58
2022/01/05 01:04:43;;;;;;;7.38;5.25;;;6.70;99.90;;;;;;5056204;28;20056;-58
2022/01/05 01:07:27;;;;;;;7.97;5.28;;;6.60;99.90;;;;;;5055504;28;20090;-58
2022/01/05 01:10:14;;;;;;;6.95;5.25;;;6.50;99.90;;;;;;5056253;28;20044;-61
2022/01/05 01:12:58;;;;;;;11.15;6.63;;;6.50;99.90;;;;;;5055618;28;20125;-59
2022/01/05 01:15:47;;;;;;;11.67;6.70;;;6.50;99.90;;;;;;5054790;28;20032;-61
2022/01/05 01:18:33;;;;;;;11.45;6.57;;;6.30;99.90;;;;;;5055387;28;20036;-61
2022/01/05 01:21:17;;;;;;;11.23;5.75;;;6.00;99.90;;;;;;5055344;28;20055;-59
2022/01/05 01:24:01;;;;;;;10.68;5.60;;;5.70;99.90;;;;;;5036536;28;20239;-57
2022/01/05 01:26:45;;;;;;;9.93;5.10;;;5.50;99.90;;;;;;5048558;28;20048;-57
2022/01/05 01:29:29;;;;;;;8.70;5.22;;;5.20;99.90;;;;;;5055725;28;20028;-58
2022/01/05 01:32:13;;;;;;;9.80;5.30;;;5.10;99.90;;;;;;5053175;28;20515;-57
2022/01/05 01:34:58;;;;;;;12.25;5.45;;;5.10;99.90;;;;;;5034153;28;20029;-59
2022/01/05 01:37:42;;;;;;;10.50;4.63;;;5.10;99.90;;;;;;5055302;28;20044;-56
2022/01/05 01:40:27;;;;;;;8.37;4.40;;;5.10;99.90;;;;;;5055660;28;20052;-59
2022/01/05 01:43:11;;;;;;;9.57;3.90;;;5.00;99.90;;;;;;5048668;28;20369;-60
2022/01/05 01:45:56;;;;;;;14.65;5.57;;;5.00;99.90;;;;;;5051533;28;20059;-56
2022/01/05 01:48:40;;;;;;;8.18;4.00;;;5.00;99.90;;;;;;5054258;28;20132;-59
2022/01/05 01:51:24;;;;;;;13.90;5.40;;;5.10;99.90;;;;;;5037380;28;20040;-57
2022/01/05 01:54:09;;;;;;;11.10;5.03;;;5.00;99.90;;;;;;5052941;28;20735;-58
2022/01/05 01:56:53;;;;;;;11.93;4.78;;;4.90;99.90;;;;;;5052195;28;20523;-60
2022/01/05 01:59:38;;;;;;;11.43;4.20;;;4.70;99.90;;;;;;5051208;28;20072;-59
2022/01/05 02:02:23;;;;;;;;;;;4.50;99.90;;;;;;5053536;28;20120;-58
2022/01/05 02:05:08;;;;;;;12.75;4.55;;;4.40;99.90;;;;;;5053120;28;19979;-57
2022/01/05 02:07:52;;;;;;;8.90;4.68;;;4.30;99.90;;;;;;5053877;28;20051;-53
2022/01/05 02:10:37;;;;;;;12.38;5.20;;;4.40;99.90;;;;;;5052319;28;20114;-55
2022/01/05 02:13:21;;;;;;;12.52;5.18;;;4.40;99.90;;;;;;5049187;28;20040;-54
2022/01/05 02:16:06;;;;;;;10.75;5.65;;;4.50;99.90;;;;;;5053647;28;20668;-56
2022/01/05 02:18:58;;;;;;;8.88;4.90;;;4.40;99.90;;;;;;5056414;28;20518;-60
2022/01/05 02:21:45;;;;;;;9.73;4.97;;;4.40;99.90;;;;;;5051418;28;20464;-62
2022/01/05 02:24:32;;;;;;;11.43;5.80;;;4.50;99.90;;;;;;5053525;28;20551;-61
2022/01/05 02:27:19;;;;;;;13.80;5.45;;;4.40;99.90;;;;;;5051952;28;20916;-58
2022/01/05 02:30:10;;;;;;;11.88;5.10;;;4.40;99.90;;;;;;5049989;28;20020;-59
2022/01/05 02:32:59;;;;;;;12.95;6.20;;;4.50;99.90;;;;;;5051609;28;20040;-58
2022/01/05 02:35:47;;;;;;;14.43;6.63;;;4.20;99.90;;;;;;5052945;28;20032;-57
2022/01/05 02:38:36;;;;;;;10.20;5.32;;;4.20;99.90;;;;;;5053802;28;20088;-55
2022/01/05 02:41:23;;;;;;;12.20;6.03;;;4.20;99.90;;;;;;5050068;28;20580;-58
2022/01/05 02:44:12;;;;;;;12.25;5.72;;;4.20;99.90;;;;;;5051953;28;20035;-58
2022/01/05 02:47:00;;;;;;;16.38;7.10;;;4.10;99.90;;;;;;5050643;28;20082;-58
2022/01/05 02:49:52;;;;;;;13.23;6.78;;;4.10;99.90;;;;;;5053785;28;20036;-57
2022/01/05 02:52:40;;;;;;;20.77;7.35;;;4.10;99.90;;;;;;5049119;28;20036;-58
2022/01/05 02:55:28;;;;;;;14.75;6.50;;;4.00;99.90;;;;;;5043773;28;20063;-61
2022/01/05 02:58:14;;;;;;;17.05;7.40;;;4.00;99.90;;;;;;5041097;28;20032;-56
2022/01/05 03:00:59;;;;;;;13.20;6.82;;;4.10;99.90;;;;;;5053282;28;20035;-56
2022/01/05 03:03:43;;;;;;;15.38;7.18;;;4.10;99.90;;;;;;5053772;28;20052;-55
2022/01/05 03:06:27;;;;;;;14.52;7.22;;;4.10;99.90;;;;;;5051369;28;20701;-57
2022/01/05 03:09:11;;;;;;;11.65;7.10;;;4.10;99.90;;;;;;5050101;28;20095;-57
2022/01/05 03:11:55;;;;;;;12.88;5.97;;;4.00;99.90;;;;;;5044981;28;20056;-56
2022/01/05 03:14:39;;;;;;;10.50;5.80;;;3.90;99.90;;;;;;5031403;28;20120;-58
2022/01/05 03:17:23;;;;;;;10.68;5.93;;;4.00;99.90;;;;;;5051833;28;20551;-57
2022/01/05 03:20:09;;;;;;;13.43;5.82;;;3.90;99.90;;;;;;5035276;28;20105;-57
2022/01/05 03:22:53;;;;;;;16.13;6.18;;;3.90;99.90;;;;;;5052690;28;20047;-58
2022/01/05 03:25:39;;;;;;;9.15;5.25;;;3.80;99.90;;;;;;5032867;28;20048;-56
2022/01/05 03:28:22;;;;;;;12.05;5.47;;;4.00;99.90;;;;;;5041790;28;20834;-57
2022/01/05 03:31:06;;;;;;;10.23;4.15;;;4.00;99.90;;;;;;5054281;28;20052;-56
2022/01/05 03:33:51;;;;;;;7.70;4.72;;;4.20;99.90;;;;;;5053261;28;20035;-57
2022/01/05 03:36:35;;;;;;;8.70;4.07;;;4.30;99.90;;;;;;5053180;28;20059;-56
2022/01/05 03:39:18;;;;;;;8.32;4.20;;;4.40;99.90;;;;;;5052846;28;20047;-55
2022/01/05 03:42:03;;;;;;;8.70;4.00;;;4.30;99.90;;;;;;5053252;28;20040;-56
2022/01/05 03:44:47;;;;;;;7.65;4.10;;;4.30;99.90;;;;;;5052949;28;20103;-55
2022/01/05 03:47:31;;;;;;;7.30;4.10;;;4.40;99.90;;;;;;5053009;28;20420;-52
2022/01/05 03:50:15;;;;;;;9.38;3.70;;;4.40;99.90;;;;;;5053885;28;20078;-53
2022/01/05 03:53:00;;;;;;;8.70;4.32;;;4.50;99.90;;;;;;5053871;28;20024;-55
2022/01/05 03:55:45;;;;;;;8.40;3.88;;;4.60;99.90;;;;;;5053902;28;20397;-53
2022/01/05 03:58:30;;;;;;;5.55;3.60;;;4.70;99.90;;;;;;5053540;28;20087;-52
2022/01/05 04:01:14;;;;;;;8.40;3.50;;;4.70;99.90;;;;;;5053534;28;20044;-54
2022/01/05 04:03:58;;;;;;;6.93;3.70;;;4.80;99.90;;;;;;5032652;28;20057;-53
2022/01/05 04:06:42;;;;;;;7.65;3.80;;;4.70;99.90;;;;;;5047634;28;20825;-56
2022/01/05 04:09:26;;;;;;;8.65;3.60;;;4.50;99.90;;;;;;5053313;28;20123;-54
2022/01/05 04:12:11;;;;;;;7.47;3.70;;;4.70;99.90;;;;;;5052042;28;20028;-50
2022/01/05 04:14:55;;;;;;;7.93;3.43;;;4.70;99.90;;;;;;5052927;28;20032;-51
2022/01/05 04:17:39;;;;;;;9.00;3.60;;;4.70;99.90;;;;;;5045139;28;20044;-53
2022/01/05 04:20:23;;;;;;;7.18;3.55;;;4.80;99.90;;;;;;5052852;28;20458;-56
2022/01/05 04:23:07;;;;;;;13.48;4.07;;;4.70;99.90;;;;;;5053065;28;20027;-54
2022/01/05 04:25:51;;;;;;;8.43;3.95;;;4.60;99.90;;;;;;5054310;28;20082;-52
2022/01/05 04:28:35;;;;;;;10.93;4.38;;;4.50;99.90;;;;;;5056310;28;20063;-53
2022/01/05 04:31:19;;;;;;;9.10;3.97;;;4.60;99.90;;;;;;5056842;28;20594;-52
2022/01/05 04:34:04;;;;;;;8.60;4.23;;;4.60;99.90;;;;;;5055831;28;20075;-55
2022/01/05 04:36:47;;;;;;;8.77;4.32;;;4.60;99.90;;;;;;5056753;28;20059;-53
2022/01/05 04:39:32;;;;;;;11.27;4.20;;;4.40;99.90;;;;;;5056056;28;20182;-50
2022/01/05 04:42:17;;;;;;;9.75;4.25;;;4.30;99.90;;;;;;5055921;28;20040;-55
2022/01/05 04:45:01;;;;;;;9.48;4.47;;;4.30;99.90;;;;;;5055542;28;20048;-56
2022/01/05 04:47:47;;;;;;;10.85;4.40;;;4.20;99.90;;;;;;5055966;28;20078;-52
2022/01/05 04:50:32;;;;;;;9.52;4.13;;;4.10;99.90;;;;;;5055675;28;20040;-50
2022/01/05 04:53:16;;;;;;;9.90;4.20;;;4.00;99.90;;;;;;5053995;28;20028;-51
2022/01/05 04:56:00;;;;;;;8.18;3.90;;;4.00;99.90;;;;;;5050869;28;20040;-53
2022/01/05 04:58:44;;;;;;;14.20;5.38;;;4.10;99.90;;;;;;5055819;28;20114;-53
2022/01/05 05:01:28;;;;;;;12.55;4.70;;;4.00;99.90;;;;;;5055507;28;20032;-56
2022/01/05 05:04:12;;;;;;;10.43;5.18;;;3.90;99.90;;;;;;5055939;28;20072;-53
2022/01/05 05:06:57;;;;;;;10.43;4.72;;;3.80;99.90;;;;;;5055093;28;20044;-56
2022/01/05 05:09:41;;;;;;;10.73;5.55;;;3.60;99.90;;;;;;5055249;28;20475;-55
2022/01/05 05:12:25;;;;;;;12.80;4.57;;;3.60;99.90;;;;;;5055729;28;20107;-51
2022/01/05 05:15:09;;;;;;;13.98;4.80;;;3.50;99.90;;;;;;5055620;28;20396;-57
2022/01/05 05:17:53;;;;;;;15.43;6.03;;;3.60;99.90;;;;;;5056152;28;20391;-56
2022/01/05 05:20:37;;;;;;;11.10;4.75;;;3.80;99.90;;;;;;5056210;28;20040;-56
2022/01/05 05:23:21;;;;;;;10.10;4.20;;;4.00;99.90;;;;;;5055447;28;20040;-57
2022/01/05 05:26:05;;;;;;;12.18;3.45;;;3.90;99.90;;;;;;5035830;28;20151;-56
2022/01/05 05:28:50;;;;;;;6.50;2.87;;;3.90;99.90;;;;;;5037417;28;20031;-57
2022/01/05 05:31:34;;;;;;;11.80;3.58;;;4.00;99.90;;;;;;5056019;28;20040;-57
2022/01/05 05:34:18;;;;;;;7.75;3.40;;;3.80;99.90;;;;;;5055076;28;20082;-58
2022/01/05 05:37:02;;;;;;;16.00;3.28;;;3.70;99.90;;;;;;5054962;28;20558;-58
2022/01/05 05:39:47;;;;;;;11.63;3.35;;;3.60;99.90;;;;;;5055254;28;20090;-58
2022/01/05 05:42:31;;;;;;;10.63;2.97;;;3.60;99.90;;;;;;5055326;28;20122;-56
2022/01/05 05:45:16;;;;;;;9.63;3.47;;;3.60;99.90;;;;;;5055320;28;20047;-57
2022/01/05 05:48:00;;;;;;;8.57;2.70;;;3.60;99.90;;;;;;5055247;28;20081;-56
2022/01/05 05:50:44;;;;;;;6.18;2.65;;;3.50;99.90;;;;;;5041312;28;20082;-56
2022/01/05 05:53:28;;;;;;;8.00;2.50;;;3.40;99.90;;;;;;5055320;28;20689;-56
2022/01/05 05:56:12;;;;;;;13.70;3.35;;;3.30;99.90;;;;;;5055205;28;20420;-57
2022/01/05 05:58:56;;;;;;;9.50;3.35;;;3.40;99.90;;;;;;5055271;28;20028;-57
2022/01/05 06:01:40;;;;;;;10.80;3.20;;;3.30;99.90;;;;;;5052006;28;20101;-53
2022/01/05 06:04:25;;;;;;;6.70;2.70;;;3.50;99.90;;;;;;5045983;28;20048;-55
2022/01/05 06:07:09;;;;;;;12.38;2.75;;;3.60;99.90;;;;;;5054666;28;20309;-51
2022/01/05 06:09:54;;;;;;;5.90;2.60;;;3.60;99.90;;;;;;5054486;28;20040;-51
2022/01/05 06:12:38;;;;;;;7.38;2.85;;;3.60;99.90;;;;;;5053783;28;20068;-56
2022/01/05 06:15:22;;;;;;;6.88;3.17;;;3.60;99.90;;;;;;5052933;28;20043;-52
2022/01/05 06:18:06;;;;;;;13.65;3.95;;;3.70;99.90;;;;;;5054674;28;20115;-55
2022/01/05 06:20:51;;;;;;;5.03;2.22;;;3.70;99.90;;;;;;5054738;28;20102;-52
2022/01/05 06:23:35;;;;;;;7.20;3.13;;;3.60;99.90;;;;;;5054283;28;20554;-56
2022/01/05 06:26:21;;;;;;;10.68;2.90;;;3.60;99.90;;;;;;5054333;28;20116;-54
2022/01/05 06:29:05;;;;;;;6.00;2.60;;;3.60;99.90;;;;;;5047090;28;20032;-54
2022/01/05 06:31:49;;;;;;;10.05;2.95;;;3.40;99.90;;;;;;5046726;28;20032;-55
2022/01/05 06:34:33;;;;;;;5.32;2.55;;;3.30;99.90;;;;;;5046677;28;20036;-56
2022/01/05 06:37:18;;;;;;;7.22;3.00;;;3.40;99.90;;;;;;5054107;28;20547;-56
2022/01/05 06:40:03;;;;;;;6.93;3.00;;;3.40;99.90;;;;;;5053940;28;20578;-55
2022/01/05 06:42:48;;;;;;;8.77;3.03;;;3.50;99.90;;;;;;5053366;28;20064;-55
2022/01/05 06:45:32;;;;;;;7.68;3.03;;;3.50;99.90;;;;;;5052659;28;20123;-55
2022/01/05 06:48:16;;;;;;;15.60;3.27;;;3.40;99.90;;;;;;5045111;28;20090;-58
2022/01/05 06:51:00;;;;;;;9.43;3.25;;;3.50;99.90;;;;;;5053399;28;20074;-51
2022/01/05 06:53:44;;;;;;;10.30;3.08;;;3.40;99.90;;;;;;5052557;28;20381;-56
2022/01/05 06:56:28;;;;;;;8.85;3.08;;;3.40;99.90;;;;;;5052974;28;20090;-57
2022/01/05 06:59:14;;;;;;;5.47;2.85;;;3.50;99.90;;;;;;5044603;28;20032;-53
2022/01/05 07:01:59;;;;;;;6.00;3.28;;;3.50;99.90;;;;;;5051536;28;20055;-55
2022/01/05 07:04:43;;;;;;;5.20;3.00;;;3.40;99.90;;;;;;5051652;28;20041;-55
2022/01/05 07:07:27;;;;;;;5.82;2.80;;;3.50;99.90;;;;;;5052397;28;20411;-54
2022/01/05 07:10:12;;;;;;;5.35;2.85;;;3.50;99.90;;;;;;5050100;28;20460;-55
2022/01/05 07:12:56;;;;;;;6.53;3.00;;;3.50;99.90;;;;;;5052791;28;20506;-56
2022/01/05 07:15:40;;;;;;;9.50;3.25;;;3.40;99.90;;;;;;5051564;28;20040;-55
2022/01/05 07:18:24;;;;;;;9.83;3.50;;;3.40;99.90;;;;;;5052810;28;20094;-55
2022/01/05 07:21:08;;;;;;;7.07;3.40;;;3.40;99.90;;;;;;5053005;28;20451;-57
2022/01/05 07:23:52;;;;;;;10.05;3.50;;;3.40;99.90;;;;;;5053052;28;20043;-56
2022/01/05 07:26:36;;;;;;;7.72;3.40;;;3.50;99.90;;;;;;5053455;28;20036;-56
2022/01/05 07:29:20;;;;;;;14.40;8.65;;;3.50;99.90;;;;;;5051766;28;20558;-54
2022/01/05 07:32:04;;;;;;;7.15;3.45;;;3.50;99.90;;;;;;5050732;28;20523;-55
2022/01/05 07:34:49;;;;;;;7.93;4.05;;;3.50;99.90;;;;;;5053488;28;20039;-56
2022/01/05 07:37:33;;;;;;;7.95;3.45;;;3.50;99.90;;;;;;5053364;28;20612;-55
2022/01/05 07:40:18;;;;;;;8.77;3.33;;;3.50;99.90;;;;;;5051812;28;20044;-56
2022/01/05 07:43:05;;;;;;;8.02;3.97;;;3.50;99.90;;;;;;5050371;28;20048;-54
2022/01/05 07:45:49;;;;;;;9.45;3.80;;;3.50;99.90;;;;;;5049313;28;20424;-57
2022/01/05 07:48:33;;;;;;;7.63;3.20;;;3.50;99.90;;;;;;5052432;28;20067;-55
2022/01/05 07:51:18;;;;;;;10.30;3.67;;;3.50;99.90;;;;;;5047155;28;20040;-57
2022/01/05 07:54:02;;;;;;;11.15;3.20;;;3.60;99.90;;;;;;5052741;28;20400;-58
2022/01/05 07:56:46;;;;;;;9.50;3.55;;;3.40;99.90;;;;;;5053025;28;20039;-56
2022/01/05 07:59:30;;;;;;;12.95;3.90;;;3.40;99.90;;;;;;5053489;28;20040;-56
2022/01/05 08:02:14;;;;;;;12.23;3.75;;;3.40;99.90;;;;;;5055684;28;20412;-56
2022/01/05 08:04:58;;;;;;;9.70;3.22;;;3.60;99.90;;;;;;5057261;28;20036;-56
2022/01/05 08:07:42;;;;;;;13.77;3.38;;;3.50;99.90;;;;;;5056814;28;20044;-53
2022/01/05 08:10:26;;;;;;;13.25;3.60;;;3.50;99.90;;;;;;5040049;28;20040;-56
2022/01/05 08:13:10;;;;;;;10.48;4.07;;;3.40;99.90;;;;;;5056143;28;20055;-55
2022/01/05 08:15:55;;;;;;;14.30;3.35;;;3.50;99.90;;;;;;5056575;28;20036;-54
2022/01/05 08:18:39;;;;;;;9.70;4.38;;;3.50;99.90;;;;;;5056817;28;20068;-57
2022/01/05 08:21:23;;;;;;;9.68;3.50;;;3.50;99.90;;;;;;5056495;28;20657;-55
2022/01/05 08:24:07;;;;;;;11.18;4.43;;;3.50;99.90;;;;;;5036669;28;20504;-55
2022/01/05 08:26:51;;;;;;;8.70;4.82;;;3.40;99.90;;;;;;5043075;28;20033;-53
2022/01/05 08:29:35;;;;;;;8.95;4.03;;;3.40;99.90;;;;;;5056297;28;20090;-53
2022/01/05 08:32:19;;;;;;;10.05;3.90;;;3.30;99.90;;;;;;5055763;28;20078;-55
2022/01/05 08:35:04;;;;;;;11.95;5.07;;;3.40;99.90;;;;;;5054251;28;20392;-54
2022/01/05 08:37:49;;;;;;;14.50;5.70;;;3.50;99.90;;;;;;5046450;28;20099;-54
2022/01/05 08:40:35;;;;;;;8.45;4.90;;;3.50;99.90;;;;;;5054933;28;20092;-57
2022/01/05 08:43:19;;;;;;;10.98;4.80;;;3.40;99.90;;;;;;5055981;28;20566;-56
2022/01/05 08:46:03;;;;;;;13.68;5.20;;;3.30;99.90;;;;;;5036229;28;20040;-56
2022/01/05 08:48:47;;;;;;;9.93;4.53;;;3.40;99.90;;;;;;5051339;28;20674;-55
2022/01/05 08:51:32;;;;;;;10.02;5.00;;;3.50;99.90;;;;;;5048150;28;20056;-64
2022/01/05 08:54:16;;;;;;;11.68;5.88;;;3.30;99.90;;;;;;5043425;28;20094;-56
2022/01/05 08:57:00;;;;;;;10.85;5.22;;;3.40;99.90;;;;;;5050655;28;20040;-55
2022/01/05 08:59:44;;;;;;;12.57;5.30;;;3.40;99.90;;;;;;5051315;28;20060;-55
2022/01/05 09:02:28;;;;;;;9.03;5.57;;;3.40;99.90;;;;;;5054266;28;20036;-54
2022/01/05 09:05:13;;;;;;;12.50;5.23;;;3.40;99.90;;;;;;5054089;28;20275;-53
2022/01/05 09:07:57;;;;;;;10.18;5.57;;;3.40;99.90;;;;;;5055355;28;20171;-65
2022/01/05 09:10:42;;;;;;;13.00;5.47;;;3.50;99.90;;;;;;5054805;28;20028;-57
2022/01/05 09:13:26;;;;;;;10.25;5.63;;;3.40;99.90;;;;;;5053155;28;20036;-56
2022/01/05 09:16:10;;;;;;;8.23;5.73;;;3.50;99.90;;;;;;5055129;28;20028;-57
2022/01/05 09:18:54;;;;;;;11.48;5.38;;;3.50;99.90;;;;;;5055090;28;20040;-57
2022/01/05 09:21:39;;;;;;;13.40;6.07;;;3.60;99.90;;;;;;5053048;28;20116;-54
2022/01/05 09:24:25;;;;;;;15.90;5.50;;;3.70;99.90;;;;;;5048211;28;20095;-56
2022/01/05 09:27:09;;;;;;;15.02;5.72;;;3.80;99.90;;;;;;5053768;28;20040;-54
2022/01/05 09:29:53;;;;;;;15.85;5.18;;;3.80;99.90;;;;;;5054718;28;20044;-55
2022/01/05 09:32:38;;;;;;;16.00;5.25;;;3.90;99.90;;;;;;5054520;28;20059;-52
2022/01/05 09:35:24;;;;;;;11.00;5.28;;;4.00;99.90;;;;;;5055153;28;20649;-54
2022/01/05 09:38:22;;;;;;;9.23;5.07;;;3.90;99.90;;;;;;5051365;28;20072;-54
2022/01/05 09:44:11;;;;;;;11.63;5.00;;;4.00;99.90;;;;;;5051338;28;20055;-57
2022/01/05 09:47:17;;;;;;;10.65;4.78;;;4.00;99.90;;;;;;5038829;28;20087;-55
2022/01/05 09:50:07;;;;;;;13.50;4.40;;;4.00;99.90;;;;;;5053509;28;20110;-57
2022/01/05 09:52:51;;;;;;;10.13;4.03;;;4.00;99.90;;;;;;5044098;28;20108;-55
2022/01/05 09:55:36;;;;;;;20.00;6.22;;;4.10;99.90;;;;;;5046691;28;20430;-55
2022/01/05 09:58:22;;;;;;;10.40;4.72;;;4.00;99.90;;;;;;5052477;28;20051;-55
2022/01/05 10:01:06;;;;;;;9.45;3.88;;;4.00;99.90;;;;;;5037611;28;20373;-57
2022/01/05 10:03:50;;;;;;;11.20;4.65;;;4.00;99.90;;;;;;5043699;28;20032;-56
2022/01/05 10:06:37;;;;;;;14.30;5.00;;;4.10;99.90;;;;;;5049096;28;20028;-57
2022/01/05 10:09:21;;;;;;;10.38;4.50;;;4.10;99.90;;;;;;5050546;28;20112;-56
2022/01/05 10:12:06;;;;;;;9.07;4.27;;;4.30;99.90;;;;;;5058130;28;20044;-60
2022/01/05 10:14:51;;;;;;;8.38;4.32;;;4.30;99.90;;;;;;5061173;28;20631;-60
2022/01/05 10:17:36;;;;;;;11.23;4.20;;;4.30;99.90;;;;;;5061486;28;20518;-59
2022/01/05 10:20:21;;;;;;;9.60;4.65;;;4.30;99.90;;;;;;5060476;28;20670;-59
2022/01/05 10:23:05;;;;;;;;;;;4.40;99.90;;;;;;5063166;28;20096;-55
2022/01/05 10:25:49;;;;;;;15.00;4.20;;;4.50;99.90;;;;;;5060138;28;19976;-58
2022/01/05 10:28:33;;;;;;;15.98;5.32;;;4.50;99.90;;;;;;5048243;28;20125;-57
2022/01/05 10:31:31;;;;;;;13.77;5.05;;;4.50;99.90;;;;;;5051241;28;20083;-52
2022/01/05 10:34:21;;;;;;;9.02;4.50;;;4.40;99.90;;;;;;5052009;28;20114;-53
2022/01/05 10:37:06;;;;;;;8.82;3.83;;;4.30;99.90;;;;;;5050500;28;20040;-60
2022/01/05 10:40:19;;;;;;;7.30;4.13;;;4.30;99.90;;;;;;5051277;28;20045;-57
2022/01/05 10:43:09;;;;;;;9.80;4.13;;;4.30;99.90;;;;;;5050327;28;20071;-57
2022/01/05 10:45:53;;;;;;;11.90;4.28;;;4.40;99.90;;;;;;5050826;28;20072;-57
2022/01/05 10:48:39;;;;;;;7.88;4.25;;;4.30;99.90;;;;;;5052053;28;20040;-56
2022/01/05 10:51:29;;;;;;;12.07;4.20;;;4.40;99.90;;;;;;5049927;28;20039;-59
2022/01/05 10:54:20;;;;;;;11.23;3.97;;;4.50;99.90;;;;;;5051519;28;20032;-57
2022/01/05 10:57:09;;;;;;;7.65;4.10;;;4.40;99.90;;;;;;5049585;28;20090;-59
2022/01/05 10:59:55;;;;;;;9.45;3.67;;;4.30;99.90;;;;;;5050470;28;20110;-58
2022/01/05 11:02:39;;;;;;;9.30;4.25;;;4.30;99.90;;;;;;5052625;28;20534;-56
2022/01/05 11:05:23;;;;;;;10.32;4.70;;;4.20;99.90;;;;;;5053042;28;20063;-55
2022/01/05 11:08:08;;;;;;;8.48;4.22;;;4.20;99.90;;;;;;5052166;28;20039;-56
2022/01/05 11:10:52;;;;;;;9.20;4.60;;;4.40;99.90;;;;;;5050697;28;20060;-56
2022/01/05 11:13:53;;;;;;;12.23;4.88;;;4.50;99.90;;;;;;5049226;28;20040;-58
2022/01/05 11:16:39;;;;;;;8.27;3.80;;;4.40;99.90;;;;;;5040060;28;20040;-54
2022/01/05 11:19:28;;;;;;;7.70;4.35;;;4.60;99.90;;;;;;5052608;28;20048;-57
2022/01/05 11:22:16;;;;;;;9.50;3.92;;;4.40;99.90;;;;;;5051969;28;20404;-56
2022/01/05 11:25:01;;;;;;;9.60;4.00;;;4.20;99.90;;;;;;5051805;28;20504;-56
2022/01/05 11:27:46;;;;;;;12.93;4.93;;;4.20;99.90;;;;;;5046631;28;20083;-52
2022/01/05 11:30:31;;;;;;;7.18;3.60;;;4.30;99.90;;;;;;5047869;28;20126;-57
2022/01/05 11:33:16;;;;;;;12.50;4.35;;;4.30;99.90;;;;;;5052191;28;20499;-57
2022/01/05 11:36:01;;;;;;;10.52;4.10;;;4.30;99.90;;;;;;5052522;28;20086;-53
2022/01/05 11:38:45;;;;;;;9.13;4.65;;;4.30;99.90;;;;;;5052758;28;20401;-59
2022/01/05 11:41:30;;;;;;;8.93;3.90;;;4.30;99.90;;;;;;5052351;28;20400;-55
2022/01/05 11:44:14;;;;;;;;;;;4.20;99.90;;;;;;5051706;28;20091;-57
2022/01/05 11:47:17;;;;;;;12.80;5.78;;;4.10;99.90;;;;;;5050143;28;20000;-57
2022/01/05 11:50:14;;;;;;;12.55;4.00;;;4.00;99.90;;;;;;5050689;28;20439;-56
2022/01/05 11:53:06;;;;;;;9.95;4.25;;;4.00;99.90;;;;;;5072342;28;20025;-53
2022/01/05 11:56:01;;;;;;;7.70;3.88;;;4.10;99.90;;;;;;5045666;28;20648;-54
2022/01/05 11:58:56;;;;;;;7.22;3.45;;;4.00;99.90;;;;;;5032522;28;20067;-56
2022/01/05 12:01:41;;;;;;;8.30;4.40;;;4.00;99.90;;;;;;5049950;28;20400;-55
2022/01/05 12:04:26;;;;;;;9.40;3.97;;;4.10;99.90;;;;;;5051268;28;20087;-54
2022/01/05 12:07:10;;;;;;;7.25;4.00;;;4.20;99.90;;;;;;5041232;28;20074;-55
2022/01/05 12:09:54;;;;;;;7.00;4.20;;;4.20;99.90;;;;;;5033257;28;20024;-57
2022/01/05 12:12:52;;;;;;;11.73;4.30;;;4.20;99.90;;;;;;5051760;28;20130;-54
2022/01/05 12:15:57;;;;;;;10.45;4.45;;;4.20;99.90;;;;;;5052291;28;20039;-57
2022/01/05 12:18:41;;;;;;;12.07;4.72;;;4.20;99.90;;;;;;5052545;28;20068;-55
2022/01/05 12:21:53;;;;;;;8.52;4.82;;;4.30;99.90;;;;;;5051940;28;20067;-52
2022/01/05 12:24:53;;;;;;;8.98;4.50;;;4.20;99.90;;;;;;5032654;28;20121;-56
2022/01/05 12:27:59;;;;;;;9.57;4.22;;;4.10;99.90;;;;;;5031004;28;20110;-54
2022/01/05 12:30:43;;;;;;;10.75;4.43;;;4.00;99.90;;;;;;5038564;28;20036;-55
2022/01/05 12:33:44;;;;;;;13.70;4.90;;;4.00;99.90;;;;;;5052882;28;20052;-57
2022/01/05 12:36:37;;;;;;;10.25;5.10;;;4.00;99.90;;;;;;5053409;28;20554;-55
2022/01/05 12:39:50;;;;;;;9.75;4.30;;;4.00;99.90;;;;;;5051996;28;20095;-56
2022/01/05 12:42:34;;;;;;;14.00;5.05;;;4.00;99.90;;;;;;5052586;28;20090;-53
2022/01/05 12:45:51;;;;;;;13.15;4.40;;;4.00;99.90;;;;;;5052243;28;20039;-57
2022/01/05 12:48:36;;;;;;;9.68;4.47;;;4.20;99.90;;;;;;5056381;28;20036;-54
2022/01/05 12:51:31;;;;;;;12.98;4.43;;;4.20;99.90;;;;;;5055735;28;20087;-54
2022/01/05 12:54:19;;;;;;;12.48;5.10;;;4.20;99.90;;;;;;5055814;28;20043;-54
2022/01/05 12:57:05;;;;;;;7.40;4.25;;;4.20;99.90;;;;;;5055788;28;20067;-57
2022/01/05 12:59:52;;;;;;;11.55;4.50;;;4.20;99.90;;;;;;5055485;28;20064;-53
2022/01/05 13:02:40;;;;;;;11.25;4.50;;;4.30;99.90;;;;;;5055825;28;20083;-55
2022/01/05 13:05:30;;;;;;;13.35;4.85;;;4.30;99.90;;;;;;5054857;28;20048;-56
2022/01/05 13:08:16;;;;;;;9.93;4.50;;;4.30;99.90;;;;;;5053909;28;20051;-53
2022/01/05 13:11:00;;;;;;;13.68;5.35;;;4.30;99.90;;;;;;5055530;28;20533;-54
2022/01/05 13:13:45;;;;;;;12.35;5.57;;;4.30;99.90;;;;;;5054448;28;20076;-55
2022/01/05 13:16:29;;;;;;;10.82;4.60;;;4.20;99.90;;;;;;5055388;28;20106;-56
2022/01/05 13:19:32;;;;;;;13.23;5.82;;;4.20;99.90;;;;;;5055347;28;20044;-56
2022/01/05 13:22:28;;;;;;;10.00;5.53;;;4.20;99.90;;;;;;5054956;28;20036;-56
2022/01/05 13:25:22;;;;;;;8.70;4.70;;;4.10;99.90;;;;;;5054755;28;20039;-56
2022/01/05 13:28:06;;;;;;;9.25;4.63;;;4.10;99.90;;;;;;5054586;28;20036;-55
2022/01/05 13:30:50;;;;;;;11.07;5.30;;;4.00;99.90;;;;;;5055061;28;20040;-53
2022/01/05 13:33:35;;;;;;;10.02;4.95;;;4.10;99.90;;;;;;5055233;28;20039;-52
2022/01/05 13:36:19;;;;;;;;;;;3.90;99.90;;;;;;5055000;28;20091;-58
2022/01/05 13:39:04;;;;;;;13.23;5.20;;;3.70;99.90;;;;;;5055018;28;19915;-55
2022/01/05 13:41:55;;;;;;;14.73;5.82;;;3.50;99.90;;;;;;5054848;28;20044;-55
2022/01/05 13:44:40;;;;;;;12.23;5.90;;;3.40;99.90;;;;;;5053999;28;20060;-55
2022/01/05 13:47:25;;;;;;;11.40;5.35;;;3.30;99.90;;;;;;5035316;28;20088;-54
2022/01/05 13:50:12;;;;;;;12.48;5.93;;;3.20;99.90;;;;;;5037544;28;20048;-57
2022/01/05 13:53:02;;;;;;;9.23;6.07;;;3.10;99.90;;;;;;5053170;28;20512;-57
2022/01/05 13:55:49;;;;;;;9.23;5.05;;;3.10;99.90;;;;;;5054328;28;20035;-55
2022/01/05 13:58:35;;;;;;;13.07;6.93;;;3.20;99.90;;;;;;5052585;28;20036;-55
2022/01/05 14:01:20;;;;;;;11.02;5.57;;;3.20;99.90;;;;;;5053776;28;20059;-56
2022/01/05 14:04:08;;;;;;;13.02;5.88;;;3.20;99.90;;;;;;5053899;28;20036;-57
2022/01/05 14:07:00;;;;;;;10.25;5.60;;;3.30;99.90;;;;;;5054063;28;20618;-58
2022/01/05 14:09:44;;;;;;;10.93;5.82;;;3.30;99.90;;;;;;5067489;28;20032;-55
2022/01/05 14:12:30;;;;;;;8.95;5.22;;;3.40;99.90;;;;;;5053502;28;20546;-55
2022/01/05 14:15:17;;;;;;;9.48;4.55;;;3.50;99.90;;;;;;5053909;28;20071;-55
2022/01/05 14:18:06;;;;;;;9.95;4.80;;;3.50;99.90;;;;;;5053235;28;20040;-55
2022/01/05 14:20:52;;;;;;;7.40;4.70;;;3.50;99.90;;;;;;5051987;28;20048;-58
2022/01/05 14:23:46;;;;;;;7.78;3.95;;;3.50;99.90;;;;;;5053377;28;20064;-56
2022/01/05 14:26:33;;;;;;;7.72;4.07;;;3.60;99.90;;;;;;5050971;28;20117;-55
2022/01/05 14:29:24;;;;;;;6.43;4.00;;;3.80;99.90;;;;;;5053294;28;20108;-53
2022/01/05 14:32:11;;;;;;;8.65;4.32;;;3.80;99.90;;;;;;5053306;28;20032;-56
2022/01/05 14:34:56;;;;;;;9.15;4.25;;;3.90;99.90;;;;;;5038730;28;20503;-57